Flight Track Log - Related Links

Times and Time Zones

All times are in EDT time to prevent confusion due to time zone crossing. See the EJA929 flight status page for this flight to view local times or setup timezone preferences in your user account.

Time Position Orientation Groundspeed Altitude Reporting Facility
EDT Latitude Longitude Course Direction KTS km/h meters Rate Location/Type
Wed 09:10:10 38.9833 -77.5500 43° Northeast 230 426 1,097  Level Potomac TRACON
Wed 09:11:10 39.0333 -77.6167 314° West 265 491 1,798 549 Climbing Potomac TRACON
Wed 09:13:10 39.1333 -77.5333 33° Northeast 296 549 2,743 315 Climbing Potomac TRACON
Wed 09:14:10 39.1667 -77.4500 63° Northeast 293 542 2,743 15 Level Potomac TRACON
Wed 09:15:00 39.5674 -76.8984 43° Northeast  Level Estimated
Wed 09:15:10 39.2000 -77.3500 67° East 286 529 2,774  Level Potomac TRACON
Wed 09:16:10 39.2500 -77.2500 57° Northeast 322 597 3,048 137 Climbing Potomac TRACON
Wed 09:17:10 39.3000 -77.1333 61° Northeast 390 723 3,048 255 Level Potomac TRACON
Wed 09:19:09 39.3192 -76.8767 84° East 400 740 3,810 398 Climbing Washington Center
Wed 09:20:09 39.3019 -76.7422 99° East 395 732 4,237 423 Climbing Washington Center
Wed 09:21:10 39.2842 -76.6106 100° East 384 711 4,663 400 Climbing Washington Center
Wed 09:22:08 39.2667 -76.4736 99° East 384 711 5,029 323 Climbing Washington Center
Wed 09:23:09 39.2506 -76.3636 101° East 384 711 5,304 240 Climbing Washington Center
Wed 09:24:10 39.2286 -76.1972 100° East 389 721 5,517 230 Climbing Washington Center
Wed 09:25:08 39.2147 -76.0497 97° East 401 742 5,761 248 Climbing Washington Center
Wed 09:26:08 39.2067 -75.9078 94° East 406 752 6,005 195 Climbing Washington Center
Wed 09:27:10 39.2653 -75.7819 59° Northeast 387 716 6,157 168 Climbing Washington Center
Wed 09:28:08 39.3508 -75.6722 45° Northeast 399 739 6,340 184 Climbing Washington Center
Wed 09:29:09 39.4364 -75.5672 43° Northeast 404 748 6,523 257 Climbing Washington Center
Wed 09:30:09 39.5217 -75.4544 46° Northeast 417 772 6,858 347 Climbing Washington Center
Wed 09:31:10 39.6069 -75.3436 45° Northeast 422 782 7,224 372 Climbing Washington Center
Wed 09:32:07 39.6922 -75.2275 46° Northeast 428 793 7,590 343 Climbing Washington Center
Wed 09:33:02 39.7622 -75.1269 48° Northeast 447 827 7,864 328 Climbing New York Center
Wed 09:34:04 39.8478 -75.0050 48° Northeast 459 850 8,230 360 Climbing New York Center
Wed 09:35:14 39.9744 -74.8475 44° Northeast 472 874 8,656 281 Climbing New York Center
Wed 09:36:14 40.0633 -74.7469 41° Northeast 472 874 8,839 91 Climbing New York Center
Wed 09:37:14 40.1653 -74.6250 42° Northeast 479 887 8,839  Level New York Center
Wed 09:38:14 40.2825 -74.4792 43° Northeast 498 922 8,839  Level New York Center
Wed 09:39:14 40.3908 -74.3489 42° Northeast 510 945 8,839 -32 Level New York Center
Wed 09:41:05 40.5833 -74.1097 43° Northeast 527 975 8,748 -289 Descending Boston Center
Wed 09:42:05 40.6808 -73.9972 41° Northeast 527 975 8,016 -728 Descending Boston Center
Wed 09:43:03 40.7867 -73.8683 43° Northeast 517 958 7,315 -354 Descending Boston Center
Wed 09:44:04 40.8903 -73.7442 42° Northeast 507 938 7,315 -150 Level Boston Center
Wed 09:45:05 40.9981 -73.6061 44° Northeast 496 919 7,010 -150 Descending Boston Center
Wed 09:46:06 41.0886 -73.5031 41° Northeast 491 909 7,010 -62 Level Boston Center
Wed 09:47:04 41.1919 -73.3833 41° Northeast 485 898 6,888 -310 Descending Boston Center
Wed 09:48:04 41.3256 -73.3467 12° North 463 858 6,401 -472 Descending Boston Center
Wed 09:49:04 41.4544 -73.3789 349° North 447 827 5,944 -454 Descending Boston Center
Wed 09:50:05 41.5875 -73.4086 351° North 447 827 5,486 -227 Descending Boston Center
Wed 09:51:05 41.7103 -73.4383 350° North 447 827 5,486 -421 Level Boston Center
Wed 09:53:03 41.9494 -73.4897 351° North 432 800 4,237 -626 Descending Boston Center
Wed 09:53:31 41.9931 -73.5014 349° North 419 776 3,962 -630 Descending Boston Center
Wed 09:54:04 42.0597 -73.5167 350° North 420 777 3,597 -740 Descending Boston Center
Wed 09:54:13 42.0722 -73.5225 341° North 414 766 3,444 -244 Descending Boston Center
Wed 09:55:04 42.1719 -73.5381 353° North 409 758 3,353 -91 Descending Boston Center
Wed 09:55:13 42.1928 -73.5414 353° North 404 748 3,353 -183 Level Boston Center
Wed 09:56:14 42.2989 -73.5656 350° North 392 726 3,139 -163 Descending Boston Center
Wed 09:57:05 42.3656 -73.5781 352° North 367 679 3,048 -111 Descending Boston Center
Wed 09:57:20 42.3947 -73.5872 347° North 291 539 3,018 -488 Descending Boston Center
Wed 09:58:05 42.4550 -73.5994 351° North 300 555 2,560 -648 Descending Boston Center
Wed 09:58:08 42.4611 -73.6025 340° North 271 502 2,499 -473 Descending Boston Center
Wed 09:59:03 42.5236 -73.6119 354° North 277 513 2,103 -480 Descending Boston Center
Wed 09:59:09 42.5361 -73.6178 341° North 278 515 2,012 -510 Descending Boston Center
Wed 10:00:04 42.6047 -73.6333 351° North 277 513 1,585 -450 Descending Boston Center
Wed 10:00:10 42.6108 -73.6361 342° North 268 496 1,554 -488 Descending Boston Center
Wed 10:01:04 42.6692 -73.6486 351° North 272 504 1,097 -518 Descending Boston Center
Wed 10:01:10 42.6836 -73.6544 343° North 260 481 1,036 -180 Descending Boston Center
Wed 10:02:05 42.7439 -73.6700 349° North 255 472 914 -120 Descending Boston Center
Wed 10:02:11 42.7564 -73.6758 341° North 247 457 914 -210 Level Boston Center
Wed 10:03:06 42.7978 -73.6908 345° North 234 433 701 -300 Descending Boston Center
Wed 10:03:12 42.8061 -73.7078 304° West 205 380 610 -126 Descending Boston Center
Wed 10:04:04 42.8539 -73.7231 347° North 216 401 579 -240 Descending Boston Center
Wed 10:04:13 42.8094 -73.7758 221° Southwest 164 304 366 -313 Descending Boston Center
Wed 10:05:20 42.7756 -73.8064 214° Southwest 135 249 183 -164 Descending Boston Center
Wed 10:10:00 42.7491 -73.8020 North  Level Estimated

Login

Don't have an account? Register now (free) for customized features, flight alerts, and more!